createdAt,value
2022-12-23T00:00:30.717Z,92.50
2022-12-23T00:03:19.209Z,92.10
2022-12-23T00:05:47.529Z,84.00
2022-12-23T00:08:15.891Z,88.70
2022-12-23T00:10:44.807Z,85.00
2022-12-23T00:13:31.663Z,84.80
2022-12-23T00:16:07.210Z,89.30
2022-12-23T00:18:35.957Z,83.40
2022-12-23T00:21:09.140Z,90.80
2022-12-23T00:23:40.189Z,93.10
2022-12-23T00:26:14.141Z,93.70
2022-12-23T00:28:42.460Z,98.00
2022-12-23T00:31:11.711Z,101.20
2022-12-23T00:33:43.729Z,100.60
2022-12-23T00:36:13.158Z,98.30
2022-12-23T00:38:59.881Z,96.70
2022-12-23T00:41:47.025Z,111.90
2022-12-23T00:44:15.840Z,106.20
2022-12-23T00:46:44.419Z,95.70
2022-12-23T00:49:32.664Z,109.30
2022-12-23T00:52:00.969Z,104.40
2022-12-23T00:54:29.380Z,108.40
2022-12-23T00:56:58.007Z,114.60
2022-12-23T00:59:26.014Z,102.60
2022-12-23T01:02:12.803Z,82.90
2022-12-23T01:04:59.404Z,96.50
2022-12-23T01:07:27.544Z,91.90
2022-12-23T01:09:55.797Z,98.80
2022-12-23T01:12:23.882Z,85.20
2022-12-23T01:14:52.061Z,92.60
2022-12-23T01:17:20.400Z,82.10
2022-12-23T01:19:48.589Z,89.90
2022-12-23T01:22:16.801Z,88.30
2022-12-23T01:24:44.894Z,88.30
2022-12-23T01:27:13.136Z,89.60
2022-12-23T01:29:41.234Z,94.30
2022-12-23T01:32:09.379Z,89.30
2022-12-23T01:34:37.887Z,89.10
2022-12-23T01:37:06.427Z,91.10
2022-12-23T01:39:34.548Z,96.50
2022-12-23T01:42:21.358Z,95.60
2022-12-23T01:45:00.920Z,99.90
2022-12-23T01:47:54.255Z,93.90
2022-12-23T01:50:38.728Z,105.60
2022-12-23T01:53:13.701Z,103.60
2022-12-23T01:56:05.799Z,112.90
2022-12-23T01:58:38.667Z,111.40
2022-12-23T02:01:26.934Z,108.20
2022-12-23T02:03:59.728Z,109.50
2022-12-23T02:06:52.227Z,94.60
2022-12-23T02:09:24.689Z,101.80
2022-12-23T02:12:21.691Z,101.30
2022-12-23T02:15:11.772Z,103.80
2022-12-23T02:18:05.738Z,113.70
2022-12-23T02:21:03.437Z,116.20
2022-12-23T02:24:16.309Z,110.90
2022-12-23T02:26:53.357Z,109.00
2022-12-23T02:29:40.184Z,117.00
2022-12-23T02:32:23.587Z,117.50
2022-12-23T02:35:27.860Z,116.70
2022-12-23T02:38:01.318Z,118.40
2022-12-23T02:40:58.204Z,123.40
2022-12-23T02:43:48.102Z,117.00
2022-12-23T02:46:30.971Z,118.80
2022-12-23T02:48:59.140Z,112.60
2022-12-23T02:51:32.960Z,117.90
2022-12-23T02:54:05.731Z,124.80
2022-12-23T02:56:37.362Z,120.20
2022-12-23T02:59:16.391Z,123.70
2022-12-23T03:01:46.024Z,126.20
2022-12-23T03:04:15.091Z,112.90
2022-12-23T03:06:50.237Z,111.60
2022-12-23T03:12:40.795Z,114.70
2022-12-23T03:15:17.889Z,111.80
2022-12-23T03:18:21.812Z,106.70
2022-12-23T03:21:18.263Z,109.60
2022-12-23T03:23:55.979Z,106.20
2022-12-23T03:26:38.221Z,103.20
2022-12-23T03:29:19.734Z,111.90
2022-12-23T03:31:49.927Z,110.00
2022-12-23T03:34:25.297Z,107.70
2022-12-23T03:36:58.119Z,105.00
2022-12-23T03:39:32.483Z,110.30
2022-12-23T03:42:13.904Z,110.40
2022-12-23T03:45:10.797Z,106.80
2022-12-23T03:47:45.603Z,110.40
2022-12-23T03:50:17.165Z,105.60
2022-12-23T03:53:12.378Z,111.90
2022-12-23T03:55:54.336Z,114.80
2022-12-23T03:58:29.217Z,108.30
2022-12-23T04:01:08.293Z,103.90
2022-12-23T04:03:42.162Z,107.60
2022-12-23T04:06:14.645Z,110.80
2022-12-23T04:08:45.017Z,120.50
2022-12-23T04:11:14.138Z,112.90
2022-12-23T04:13:42.470Z,112.70
2022-12-23T04:16:11.035Z,106.40
2022-12-23T04:18:39.083Z,102.70
2022-12-23T04:21:07.328Z,102.20
2022-12-23T04:23:35.411Z,103.70
2022-12-23T04:26:03.494Z,102.50
2022-12-23T04:28:31.580Z,101.10
2022-12-23T04:30:59.996Z,89.70
2022-12-23T04:33:28.362Z,99.80
2022-12-23T04:35:56.472Z,99.00
2022-12-23T04:38:24.661Z,98.20
2022-12-23T04:40:52.695Z,98.40
2022-12-23T04:43:20.893Z,102.50
2022-12-23T04:45:52.921Z,104.60
2022-12-23T04:48:21.232Z,107.20
2022-12-23T04:50:49.432Z,101.50
2022-12-23T04:53:17.465Z,104.60
2022-12-23T04:55:51.291Z,108.30
2022-12-23T04:58:22.365Z,107.90
2022-12-23T05:00:50.794Z,103.50
2022-12-23T05:03:19.089Z,102.30
2022-12-23T05:05:47.359Z,104.70
2022-12-23T05:08:15.386Z,97.20
2022-12-23T05:10:45.733Z,98.90
2022-12-23T05:13:13.838Z,103.70
2022-12-23T05:15:45.436Z,95.00
2022-12-23T05:18:13.394Z,94.10
2022-12-23T05:20:41.504Z,96.30
2022-12-23T05:23:09.884Z,96.10
2022-12-23T05:25:39.537Z,93.00
2022-12-23T05:28:08.261Z,96.30
2022-12-23T05:30:36.758Z,97.10
2022-12-23T05:33:04.890Z,97.20
2022-12-23T05:35:33.117Z,101.00
2022-12-23T05:38:03.367Z,100.40
2022-12-23T05:40:33.187Z,104.10
2022-12-23T05:43:02.504Z,107.10
2022-12-23T05:45:30.853Z,109.20
2022-12-23T05:47:59.207Z,111.60
2022-12-23T05:50:27.450Z,107.80
2022-12-23T05:52:58.400Z,94.90
2022-12-23T05:55:27.356Z,103.00
2022-12-23T05:57:55.564Z,109.90
2022-12-23T06:00:24.152Z,103.60
2022-12-23T06:02:54.168Z,105.10
2022-12-23T06:05:22.915Z,105.10
2022-12-23T06:07:51.240Z,106.60
2022-12-23T06:10:19.840Z,106.20
2022-12-23T06:12:47.982Z,109.00
2022-12-23T06:15:16.503Z,93.70
2022-12-23T06:17:44.653Z,105.00
2022-12-23T06:20:20.018Z,97.70
2022-12-23T06:22:49.040Z,102.80
2022-12-23T06:25:17.151Z,98.80
2022-12-23T06:27:45.360Z,91.60
2022-12-23T06:30:14.508Z,95.40
2022-12-23T06:32:42.849Z,94.80
2022-12-23T06:35:10.965Z,98.80
2022-12-23T06:37:39.009Z,105.80
2022-12-23T06:40:07.557Z,94.80
2022-12-23T06:42:35.808Z,103.00
2022-12-23T06:45:04.342Z,109.70
2022-12-23T06:47:32.530Z,107.60
2022-12-23T06:50:00.599Z,103.90
2022-12-23T06:52:28.946Z,104.80
2022-12-23T06:54:57.327Z,106.60
2022-12-23T06:57:28.916Z,115.10
2022-12-23T06:59:57.928Z,101.90
2022-12-23T07:02:26.271Z,111.30
2022-12-23T07:04:54.532Z,115.40
2022-12-23T07:07:22.681Z,107.80
2022-12-23T07:09:50.701Z,114.60
2022-12-23T07:12:19.617Z,106.90
2022-12-23T07:14:47.777Z,100.80
2022-12-23T07:17:15.995Z,111.00
2022-12-23T07:19:44.304Z,102.70
2022-12-23T07:22:12.480Z,103.60
2022-12-23T07:24:40.714Z,106.40
2022-12-23T07:27:09.700Z,94.70
2022-12-23T07:29:37.649Z,95.00
2022-12-23T07:32:05.921Z,103.00
2022-12-23T07:34:34.374Z,101.40
2022-12-23T07:37:02.673Z,101.80
2022-12-23T07:39:30.931Z,101.10
2022-12-23T07:42:25.078Z,96.50
2022-12-23T07:44:47.719Z,107.70
2022-12-23T07:47:16.024Z,105.50
2022-12-23T07:49:44.405Z,102.20
2022-12-23T07:52:12.909Z,117.80
2022-12-23T07:54:43.543Z,115.70
2022-12-23T07:57:15.551Z,119.20
2022-12-23T07:59:43.919Z,132.90
2022-12-23T08:02:12.519Z,123.90
2022-12-23T08:04:46.113Z,128.80
2022-12-23T08:07:15.246Z,107.50
2022-12-23T08:09:43.718Z,96.90
2022-12-23T08:12:12.306Z,92.30
2022-12-23T08:14:40.546Z,105.30
2022-12-23T08:17:09.706Z,103.00
2022-12-23T08:19:38.396Z,105.00
2022-12-23T08:22:07.210Z,108.60
2022-12-23T08:24:35.409Z,146.20
2022-12-23T08:27:03.815Z,159.90
2022-12-23T08:29:36.267Z,172.90
2022-12-23T08:32:05.718Z,166.20
2022-12-23T08:34:34.384Z,159.00
2022-12-23T08:37:03.585Z,162.30
2022-12-23T08:39:32.147Z,125.30
2022-12-23T08:42:00.752Z,113.90
2022-12-23T08:44:29.926Z,97.40
2022-12-23T08:46:58.485Z,117.30
2022-12-23T08:49:27.079Z,92.40
2022-12-23T08:51:55.373Z,90.30
2022-12-23T08:54:25.326Z,97.20
2022-12-23T08:56:53.776Z,94.70
2022-12-23T08:59:21.840Z,112.90
2022-12-23T09:01:50.429Z,107.50
2022-12-23T09:04:18.914Z,105.00
2022-12-23T09:06:47.051Z,103.00
2022-12-23T09:09:16.409Z,100.40
2022-12-23T09:11:44.865Z,102.20
2022-12-23T09:14:13.048Z,97.00
2022-12-23T09:16:41.364Z,110.30
2022-12-23T09:19:09.943Z,112.00
2022-12-23T09:21:38.172Z,116.40
2022-12-23T09:24:06.678Z,112.60
2022-12-23T09:26:34.897Z,100.40
2022-12-23T09:29:03.046Z,99.10
2022-12-23T09:31:36.600Z,102.30
2022-12-23T09:34:06.183Z,91.50
2022-12-23T09:36:35.006Z,87.60
2022-12-23T09:39:04.128Z,91.00
2022-12-23T09:41:42.981Z,99.80
2022-12-23T09:44:45.872Z,90.60
2022-12-23T09:47:22.239Z,95.00
2022-12-23T09:49:56.913Z,94.90
2022-12-23T09:53:17.775Z,89.80
2022-12-23T09:55:55.284Z,104.60
2022-12-23T09:58:36.663Z,97.70
2022-12-23T10:01:20.065Z,104.60
2022-12-23T10:03:52.766Z,105.60
2022-12-23T10:06:27.924Z,101.60
2022-12-23T10:09:02.791Z,96.10
2022-12-23T10:11:47.251Z,84.50
2022-12-23T10:14:21.125Z,89.80
2022-12-23T10:16:58.069Z,95.90
2022-12-23T10:19:28.984Z,97.00
2022-12-23T10:22:10.630Z,102.20
2022-12-23T10:24:42.031Z,104.60
2022-12-23T10:27:22.346Z,108.50
2022-12-23T10:29:50.570Z,113.00
2022-12-23T10:32:31.467Z,114.10
2022-12-23T10:35:35.761Z,106.20
2022-12-23T10:38:19.972Z,104.80
2022-12-23T10:41:32.982Z,89.00
2022-12-23T10:44:22.975Z,94.20
2022-12-23T10:47:16.708Z,92.70
2022-12-23T10:50:14.487Z,97.10
2022-12-23T10:52:45.607Z,95.60
2022-12-23T10:55:36.298Z,103.20
2022-12-23T10:58:15.719Z,106.10
2022-12-23T11:00:53.796Z,95.40
2022-12-23T11:03:26.579Z,91.40
2022-12-23T11:05:57.606Z,92.20
2022-12-23T11:08:29.578Z,94.90
2022-12-23T11:11:01.169Z,69.70
2022-12-23T11:13:32.524Z,90.50
2022-12-23T11:16:21.856Z,62.30
2022-12-23T11:18:55.016Z,78.40
2022-12-23T11:21:23.721Z,82.00
2022-12-23T11:24:18.301Z,95.90
2022-12-23T11:26:51.778Z,89.70
2022-12-23T11:29:36.938Z,84.60
2022-12-23T11:32:17.806Z,80.80
2022-12-23T11:34:48.393Z,61.80
2022-12-23T11:37:40.934Z,72.70
2022-12-23T11:40:25.437Z,79.20
2022-12-23T11:43:03.508Z,83.50
2022-12-23T11:45:38.003Z,82.40
2022-12-23T11:48:26.231Z,72.50
2022-12-23T11:51:04.013Z,73.40
2022-12-23T11:53:32.833Z,80.30
2022-12-23T11:56:04.794Z,81.30
2022-12-23T11:58:59.837Z,86.80
2022-12-23T12:01:29.024Z,87.80
2022-12-23T12:04:03.984Z,89.70
2022-12-23T12:06:34.042Z,81.60
2022-12-23T12:09:05.709Z,81.10
2022-12-23T12:11:48.309Z,78.10
2022-12-23T12:14:23.310Z,69.90
2022-12-23T12:17:00.881Z,79.30
2022-12-23T12:19:36.117Z,81.90
2022-12-23T12:22:15.003Z,67.40
2022-12-23T12:24:50.805Z,86.00
2022-12-23T12:27:22.900Z,87.90
2022-12-23T12:29:56.261Z,92.00
2022-12-23T12:32:41.245Z,77.60
2022-12-23T12:35:22.304Z,75.90
2022-12-23T12:38:01.910Z,78.30
2022-12-23T12:40:41.231Z,74.70
2022-12-23T12:43:32.825Z,80.50
2022-12-23T12:46:33.279Z,74.60
2022-12-23T12:49:05.018Z,69.50
2022-12-23T12:51:46.942Z,67.30
2022-12-23T12:54:30.542Z,72.90
2022-12-23T12:56:59.948Z,72.30
2022-12-23T12:59:39.274Z,77.80
2022-12-23T13:02:42.600Z,72.80
2022-12-23T13:05:30.270Z,78.80
2022-12-23T13:08:21.967Z,90.00
2022-12-23T13:10:56.660Z,78.90
2022-12-23T13:14:02.274Z,73.40
2022-12-23T13:16:44.152Z,68.40
2022-12-23T13:19:44.655Z,74.20
2022-12-23T13:22:17.748Z,67.40
2022-12-23T13:25:22.596Z,79.40
2022-12-23T13:28:12.085Z,74.80
2022-12-23T13:30:48.585Z,71.70
2022-12-23T13:33:21.253Z,84.40
2022-12-23T13:36:14.628Z,82.20
2022-12-23T13:39:18.802Z,88.10
2022-12-23T13:41:53.701Z,88.10
2022-12-23T13:44:23.133Z,87.80
2022-12-23T13:47:06.755Z,86.40
2022-12-23T13:49:53.352Z,85.30
2022-12-23T13:52:56.932Z,83.00
2022-12-23T13:55:36.616Z,78.40
2022-12-23T13:58:13.565Z,80.50
2022-12-23T14:00:42.433Z,79.30
2022-12-23T14:03:12.800Z,71.40
2022-12-23T14:05:45.336Z,73.90
2022-12-23T14:08:19.586Z,76.00
2022-12-23T14:11:00.380Z,86.20
2022-12-23T14:13:42.327Z,78.70
2022-12-23T14:16:37.813Z,83.50
2022-12-23T14:19:51.940Z,86.20
2022-12-23T14:22:53.886Z,85.00
2022-12-23T14:25:47.483Z,83.40
2022-12-23T14:28:44.059Z,87.70
2022-12-23T14:31:34.671Z,85.20
2022-12-23T14:34:06.554Z,81.20
2022-12-23T14:36:35.271Z,85.80
2022-12-23T14:39:12.718Z,83.50
2022-12-23T14:41:53.662Z,76.10
2022-12-23T14:44:37.324Z,73.00
2022-12-23T14:47:25.880Z,76.40
2022-12-23T14:49:54.585Z,88.80
2022-12-23T14:52:38.068Z,86.90
2022-12-23T14:55:31.693Z,87.90
2022-12-23T14:58:15.323Z,77.80
2022-12-23T15:00:50.879Z,89.90
2022-12-23T15:03:20.772Z,85.40
2022-12-23T15:05:51.216Z,102.50
2022-12-23T15:08:31.236Z,90.20
2022-12-23T15:10:59.867Z,91.00
2022-12-23T15:13:30.363Z,97.00
2022-12-23T15:16:01.686Z,93.00
2022-12-23T15:18:30.346Z,94.90
2022-12-23T15:21:04.075Z,84.00
2022-12-23T15:23:33.379Z,92.20
2022-12-23T15:26:02.653Z,91.00
2022-12-23T15:28:39.511Z,91.40
2022-12-23T15:31:25.657Z,96.00
2022-12-23T15:34:04.125Z,85.30
2022-12-23T15:36:37.772Z,87.60
2022-12-23T15:39:18.914Z,89.60
2022-12-23T15:41:48.690Z,90.90
2022-12-23T15:44:23.338Z,87.00
2022-12-23T15:46:52.292Z,98.80
2022-12-23T15:49:21.962Z,84.50
2022-12-23T15:52:07.843Z,86.60
2022-12-23T15:54:45.170Z,98.90
2022-12-23T15:57:19.842Z,84.70
2022-12-23T15:59:48.928Z,95.00
2022-12-23T16:05:30.575Z,91.00
2022-12-23T16:08:30.470Z,78.60
2022-12-23T16:11:16.157Z,95.00
2022-12-23T16:13:59.193Z,91.70
2022-12-23T16:16:34.195Z,80.50
2022-12-23T16:19:02.694Z,90.50
2022-12-23T16:21:34.732Z,102.80
2022-12-23T16:24:08.495Z,92.40
2022-12-23T16:26:42.751Z,98.20
2022-12-23T16:29:13.070Z,97.30
2022-12-23T16:31:47.864Z,98.90
2022-12-23T16:34:19.997Z,96.00
2022-12-23T16:36:48.164Z,98.50
2022-12-23T16:39:22.627Z,100.50
2022-12-23T16:41:51.222Z,102.50
2022-12-23T16:44:19.240Z,103.00
2022-12-23T16:46:49.697Z,96.00
2022-12-23T16:49:20.735Z,102.00
2022-12-23T16:51:49.416Z,90.00
2022-12-23T16:54:20.258Z,95.50
2022-12-23T16:56:51.600Z,91.40
2022-12-23T16:59:22.903Z,105.00
2022-12-23T17:01:53.674Z,108.30
2022-12-23T17:04:24.070Z,107.30
2022-12-23T17:06:52.329Z,104.60
2022-12-23T17:09:21.163Z,89.00
2022-12-23T17:11:53.184Z,102.00
2022-12-23T17:14:24.865Z,92.10
2022-12-23T17:16:53.738Z,93.70
2022-12-23T17:19:28.677Z,84.80
2022-12-23T17:22:02.201Z,84.80
2022-12-23T17:24:30.573Z,81.00
2022-12-23T17:26:59.075Z,82.20
2022-12-23T17:29:28.407Z,72.00
2022-12-23T17:31:56.642Z,80.90
2022-12-23T17:34:25.003Z,84.30
2022-12-23T17:36:53.589Z,78.00
2022-12-23T17:39:22.852Z,95.90
2022-12-23T17:41:51.908Z,90.50
2022-12-23T17:44:20.187Z,91.50
2022-12-23T17:46:48.615Z,77.10
2022-12-23T17:49:17.403Z,86.50
2022-12-23T17:51:45.950Z,88.50
2022-12-23T17:54:25.125Z,88.50
2022-12-23T17:56:53.888Z,83.90
2022-12-23T17:59:22.064Z,84.40
2022-12-23T18:01:50.512Z,86.70
2022-12-23T18:04:18.880Z,75.50
2022-12-23T18:06:47.166Z,83.50
2022-12-23T18:09:15.298Z,80.30
2022-12-23T18:11:45.931Z,88.70
2022-12-23T18:14:24.005Z,90.00
2022-12-23T18:16:52.512Z,90.70
2022-12-23T18:19:21.896Z,100.40
2022-12-23T18:21:51.690Z,93.90
2022-12-23T18:24:19.840Z,90.80
2022-12-23T18:26:48.171Z,91.70
2022-12-23T18:29:16.439Z,97.40
2022-12-23T18:31:51.428Z,96.80
2022-12-23T18:34:21.136Z,91.50
2022-12-23T18:36:52.076Z,87.80
2022-12-23T18:39:21.313Z,94.90
2022-12-23T18:41:49.555Z,77.60
2022-12-23T18:44:21.828Z,80.60
2022-12-23T18:46:50.790Z,74.00
2022-12-23T18:49:19.600Z,82.90
2022-12-23T18:51:48.035Z,78.70
2022-12-23T18:54:16.993Z,73.80
2022-12-23T18:56:45.646Z,85.20
2022-12-23T18:59:24.316Z,84.50
2022-12-23T19:01:58.325Z,97.30
2022-12-23T19:04:27.934Z,92.80
2022-12-23T19:06:57.736Z,113.00
2022-12-23T19:09:26.508Z,109.30
2022-12-23T19:11:54.901Z,108.50
2022-12-23T19:14:23.395Z,111.60
2022-12-23T19:16:52.700Z,107.50
2022-12-23T19:19:22.183Z,117.80
2022-12-23T19:21:50.427Z,99.70
2022-12-23T19:24:18.534Z,101.50
2022-12-23T19:26:47.071Z,100.70
2022-12-23T19:29:15.437Z,108.60
2022-12-23T19:31:43.625Z,98.90
2022-12-23T19:34:15.355Z,98.30
2022-12-23T19:36:44.705Z,101.70
2022-12-23T19:39:16.989Z,97.80
2022-12-23T19:41:45.778Z,89.40
2022-12-23T19:44:14.886Z,86.70
2022-12-23T19:46:43.449Z,82.50
2022-12-23T19:49:19.177Z,78.90
2022-12-23T19:51:49.518Z,94.60
2022-12-23T19:54:19.308Z,75.60
2022-12-23T19:56:51.406Z,84.40
2022-12-23T19:59:20.165Z,89.60
2022-12-23T20:01:49.060Z,94.00
2022-12-23T20:04:17.721Z,93.50
2022-12-23T20:06:46.270Z,89.40
2022-12-23T20:09:14.368Z,102.90
2022-12-23T20:11:45.653Z,99.00
2022-12-23T20:14:15.952Z,107.80
2022-12-23T20:16:44.563Z,99.10
2022-12-23T20:19:12.819Z,105.10
2022-12-23T20:21:41.007Z,96.70
2022-12-23T20:24:09.739Z,95.60
2022-12-23T20:26:39.365Z,102.20
2022-12-23T20:29:08.651Z,98.50
2022-12-23T20:31:38.677Z,100.70
2022-12-23T20:34:10.790Z,95.80
2022-12-23T20:36:39.158Z,89.90
2022-12-23T20:39:07.818Z,99.70
2022-12-23T20:41:36.055Z,98.10
2022-12-23T20:46:52.677Z,94.30
2022-12-23T20:49:21.079Z,98.90
2022-12-23T20:51:49.448Z,104.60
2022-12-23T20:54:17.939Z,105.90
2022-12-23T20:56:46.552Z,107.20
2022-12-23T20:59:14.857Z,105.40
2022-12-23T21:01:43.409Z,106.00
2022-12-23T21:04:18.373Z,101.20
2022-12-23T21:06:46.531Z,104.20
2022-12-23T21:09:15.615Z,112.60
2022-12-23T21:11:45.920Z,115.20
2022-12-23T21:14:15.478Z,109.00
2022-12-23T21:16:44.070Z,102.40
2022-12-23T21:19:21.698Z,105.70
2022-12-23T21:21:51.369Z,110.20
2022-12-23T21:24:20.977Z,97.80
2022-12-23T21:26:56.574Z,104.10
2022-12-23T21:29:25.948Z,102.20
2022-12-23T21:31:55.523Z,84.80
2022-12-23T21:34:24.180Z,89.20
2022-12-23T21:36:52.555Z,91.40
2022-12-23T21:39:20.968Z,99.60
2022-12-23T21:41:51.709Z,101.20
2022-12-23T21:44:20.015Z,103.00
2022-12-23T21:46:50.941Z,107.50
2022-12-23T21:49:21.408Z,107.70
2022-12-23T21:51:49.583Z,105.80
2022-12-23T21:54:17.683Z,106.00
2022-12-23T21:56:45.763Z,105.90
2022-12-23T21:59:15.033Z,101.20
2022-12-23T22:01:43.761Z,99.00
2022-12-23T22:04:11.935Z,92.80
2022-12-23T22:06:46.266Z,102.10
2022-12-23T22:09:19.000Z,101.30
2022-12-23T22:11:48.627Z,94.00
2022-12-23T22:14:19.802Z,93.30
2022-12-23T22:16:48.061Z,97.10
2022-12-23T22:19:16.418Z,99.60
2022-12-23T22:21:44.934Z,100.60
2022-12-23T22:24:13.196Z,92.60
2022-12-23T22:26:41.923Z,92.00
2022-12-23T22:29:10.793Z,100.10
2022-12-23T22:31:47.471Z,108.90
2022-12-23T22:34:19.192Z,107.20
2022-12-23T22:36:48.205Z,102.40
2022-12-23T22:39:21.086Z,102.20
2022-12-23T22:41:51.483Z,108.50
2022-12-23T22:44:20.983Z,108.20
2022-12-23T22:46:49.165Z,116.20
2022-12-23T22:49:17.578Z,110.90
2022-12-23T22:51:45.715Z,109.20
2022-12-23T22:54:14.343Z,95.30
2022-12-23T22:56:42.718Z,95.60
2022-12-23T22:59:19.480Z,100.80
2022-12-23T23:01:48.993Z,96.50
2022-12-23T23:04:17.567Z,99.70
2022-12-23T23:06:45.619Z,106.30
2022-12-23T23:09:18.320Z,99.90
2022-12-23T23:11:46.455Z,79.80
2022-12-23T23:14:14.960Z,102.20
2022-12-23T23:16:43.127Z,110.40
2022-12-23T23:19:12.093Z,93.80
2022-12-23T23:21:40.108Z,110.20
2022-12-23T23:24:08.650Z,112.90
2022-12-23T23:26:36.521Z,107.70
2022-12-23T23:29:04.960Z,117.40
2022-12-23T23:31:42.286Z,114.30
2022-12-23T23:34:12.066Z,104.70
2022-12-23T23:36:40.775Z,111.70
2022-12-23T23:39:11.335Z,109.90
2022-12-23T23:41:41.066Z,109.60
2022-12-23T23:44:09.375Z,106.10
2022-12-23T23:46:38.650Z,108.90
2022-12-23T23:49:06.742Z,110.40
2022-12-23T23:51:35.071Z,113.50
2022-12-23T23:54:03.703Z,106.80
2022-12-23T23:56:37.834Z,100.10
2022-12-23T23:59:09.083Z,97.10
